sensor_id;sensor_type;location;lat;lon;timestamp;P1;durP1;ratioP1;P2;durP2;ratioP2
13687;SDS011;6916;51.504;7.416;2023-06-10T00:01:03;6.90;;;6.20;;
13687;SDS011;6916;51.504;7.416;2023-06-10T00:11:06;6.90;;;6.30;;
13687;SDS011;6916;51.504;7.416;2023-06-10T00:21:08;7.05;;;6.35;;
13687;SDS011;6916;51.504;7.416;2023-06-10T00:31:11;8.43;;;6.07;;
13687;SDS011;6916;51.504;7.416;2023-06-10T00:41:13;8.18;;;6.40;;
13687;SDS011;6916;51.504;7.416;2023-06-10T00:51:16;8.27;;;6.60;;
13687;SDS011;6916;51.504;7.416;2023-06-10T01:01:18;9.40;;;7.22;;
13687;SDS011;6916;51.504;7.416;2023-06-10T01:11:24;7.72;;;6.95;;
13687;SDS011;6916;51.504;7.416;2023-06-10T01:21:28;9.68;;;7.30;;
13687;SDS011;6916;51.504;7.416;2023-06-10T01:31:42;8.63;;;7.53;;
13687;SDS011;6916;51.504;7.416;2023-06-10T01:41:52;8.38;;;7.57;;
13687;SDS011;6916;51.504;7.416;2023-06-10T01:51:55;8.30;;;7.20;;
13687;SDS011;6916;51.504;7.416;2023-06-10T02:01:57;9.85;;;8.13;;
13687;SDS011;6916;51.504;7.416;2023-06-10T02:11:59;10.05;;;8.50;;
13687;SDS011;6916;51.504;7.416;2023-06-10T02:22:02;10.55;;;9.45;;
13687;SDS011;6916;51.504;7.416;2023-06-10T02:32:04;22.50;;;20.30;;
13687;SDS011;6916;51.504;7.416;2023-06-10T02:42:11;28.98;;;26.17;;
13687;SDS011;6916;51.504;7.416;2023-06-10T02:52:14;20.98;;;19.02;;
13687;SDS011;6916;51.504;7.416;2023-06-10T03:02:17;16.70;;;13.23;;
13687;SDS011;6916;51.504;7.416;2023-06-10T03:12:24;13.13;;;11.85;;
13687;SDS011;6916;51.504;7.416;2023-06-10T03:22:27;16.13;;;11.55;;
13687;SDS011;6916;51.504;7.416;2023-06-10T03:32:37;13.52;;;12.23;;
13687;SDS011;6916;51.504;7.416;2023-06-10T03:42:42;14.05;;;12.50;;
13687;SDS011;6916;51.504;7.416;2023-06-10T03:52:48;13.20;;;11.70;;
13687;SDS011;6916;51.504;7.416;2023-06-10T04:02:54;12.95;;;11.52;;
13687;SDS011;6916;51.504;7.416;2023-06-10T04:13:09;13.25;;;11.20;;
13687;SDS011;6916;51.504;7.416;2023-06-10T04:23:19;11.75;;;10.55;;
13687;SDS011;6916;51.504;7.416;2023-06-10T04:33:22;14.75;;;10.85;;
13687;SDS011;6916;51.504;7.416;2023-06-10T04:43:24;11.50;;;9.38;;
13687;SDS011;6916;51.504;7.416;2023-06-10T04:53:27;12.35;;;10.32;;
13687;SDS011;6916;51.504;7.416;2023-06-10T05:03:30;12.82;;;9.02;;
13687;SDS011;6916;51.504;7.416;2023-06-10T05:13:33;9.45;;;8.20;;
13687;SDS011;6916;51.504;7.416;2023-06-10T05:23:35;11.38;;;8.40;;
13687;SDS011;6916;51.504;7.416;2023-06-10T05:33:37;9.07;;;8.18;;
13687;SDS011;6916;51.504;7.416;2023-06-10T05:43:40;9.38;;;7.85;;
13687;SDS011;6916;51.504;7.416;2023-06-10T05:53:43;11.27;;;7.90;;
13687;SDS011;6916;51.504;7.416;2023-06-10T06:03:45;7.70;;;6.90;;
13687;SDS011;6916;51.504;7.416;2023-06-10T06:13:47;10.05;;;7.18;;
13687;SDS011;6916;51.504;7.416;2023-06-10T06:23:54;8.43;;;7.30;;
13687;SDS011;6916;51.504;7.416;2023-06-10T06:33:56;10.52;;;6.15;;
13687;SDS011;6916;51.504;7.416;2023-06-10T06:43:59;6.03;;;5.38;;
13687;SDS011;6916;51.504;7.416;2023-06-10T06:54:12;9.07;;;4.95;;
13687;SDS011;6916;51.504;7.416;2023-06-10T07:04:15;6.85;;;4.95;;
13687;SDS011;6916;51.504;7.416;2023-06-10T07:14:17;7.57;;;5.55;;
13687;SDS011;6916;51.504;7.416;2023-06-10T07:24:19;8.25;;;5.60;;
13687;SDS011;6916;51.504;7.416;2023-06-10T07:34:23;7.22;;;5.20;;
13687;SDS011;6916;51.504;7.416;2023-06-10T07:44:26;6.53;;;4.07;;
13687;SDS011;6916;51.504;7.416;2023-06-10T07:54:28;6.13;;;4.32;;
13687;SDS011;6916;51.504;7.416;2023-06-10T08:04:31;6.68;;;4.70;;
13687;SDS011;6916;51.504;7.416;2023-06-10T08:14:34;4.85;;;4.32;;
13687;SDS011;6916;51.504;7.416;2023-06-10T08:24:36;7.68;;;3.90;;
13687;SDS011;6916;51.504;7.416;2023-06-10T08:34:38;5.60;;;3.75;;
13687;SDS011;6916;51.504;7.416;2023-06-10T08:44:41;5.13;;;3.90;;
13687;SDS011;6916;51.504;7.416;2023-06-10T08:55:08;7.50;;;3.97;;
13687;SDS011;6916;51.504;7.416;2023-06-10T09:05:09;8.02;;;4.15;;
13687;SDS011;6916;51.504;7.416;2023-06-10T09:15:12;6.13;;;4.38;;
13687;SDS011;6916;51.504;7.416;2023-06-10T09:25:16;4.68;;;3.65;;
13687;SDS011;6916;51.504;7.416;2023-06-10T09:35:20;5.90;;;3.92;;
13687;SDS011;6916;51.504;7.416;2023-06-10T09:45:23;5.40;;;3.88;;
13687;SDS011;6916;51.504;7.416;2023-06-10T09:55:25;5.93;;;3.60;;
13687;SDS011;6916;51.504;7.416;2023-06-10T10:05:28;4.10;;;3.70;;
13687;SDS011;6916;51.504;7.416;2023-06-10T10:15:31;8.25;;;4.10;;
13687;SDS011;6916;51.504;7.416;2023-06-10T10:25:35;5.88;;;4.20;;
13687;SDS011;6916;51.504;7.416;2023-06-10T10:35:40;6.53;;;4.50;;
13687;SDS011;6916;51.504;7.416;2023-06-10T10:45:45;6.07;;;4.80;;
13687;SDS011;6916;51.504;7.416;2023-06-10T10:56:07;5.30;;;4.80;;
13687;SDS011;6916;51.504;7.416;2023-06-10T11:06:16;5.72;;;4.75;;
13687;SDS011;6916;51.504;7.416;2023-06-10T11:16:19;5.65;;;3.90;;
13687;SDS011;6916;51.504;7.416;2023-06-10T11:36:29;5.15;;;4.22;;
13687;SDS011;6916;51.504;7.416;2023-06-10T11:46:31;6.70;;;4.22;;
13687;SDS011;6916;51.504;7.416;2023-06-10T11:56:34;12.07;;;4.72;;
13687;SDS011;6916;51.504;7.416;2023-06-10T12:06:58;6.53;;;4.47;;
13687;SDS011;6916;51.504;7.416;2023-06-10T12:16:59;5.38;;;4.30;;
13687;SDS011;6916;51.504;7.416;2023-06-10T12:27:01;6.85;;;4.45;;
13687;SDS011;6916;51.504;7.416;2023-06-10T12:37:05;4.65;;;4.25;;
13687;SDS011;6916;51.504;7.416;2023-06-10T12:47:08;6.78;;;4.72;;
13687;SDS011;6916;51.504;7.416;2023-06-10T12:57:11;5.30;;;4.80;;
13687;SDS011;6916;51.504;7.416;2023-06-10T13:07:15;6.25;;;4.68;;
13687;SDS011;6916;51.504;7.416;2023-06-10T13:17:18;10.55;;;4.65;;
13687;SDS011;6916;51.504;7.416;2023-06-10T13:27:23;9.13;;;7.35;;
13687;SDS011;6916;51.504;7.416;2023-06-10T13:37:26;5.95;;;4.53;;
13687;SDS011;6916;51.504;7.416;2023-06-10T13:47:28;7.32;;;4.75;;
13687;SDS011;6916;51.504;7.416;2023-06-10T13:57:31;6.97;;;4.38;;
13687;SDS011;6916;51.504;7.416;2023-06-10T14:07:33;4.65;;;4.25;;
13687;SDS011;6916;51.504;7.416;2023-06-10T14:17:36;5.28;;;4.68;;
13687;SDS011;6916;51.504;7.416;2023-06-10T14:27:38;7.03;;;4.60;;
13687;SDS011;6916;51.504;7.416;2023-06-10T14:37:41;5.63;;;3.75;;
13687;SDS011;6916;51.504;7.416;2023-06-10T14:47:43;7.43;;;4.35;;
13687;SDS011;6916;51.504;7.416;2023-06-10T14:57:46;5.50;;;4.28;;
13687;SDS011;6916;51.504;7.416;2023-06-10T15:07:48;4.72;;;4.00;;
13687;SDS011;6916;51.504;7.416;2023-06-10T15:17:50;4.57;;;4.10;;
13687;SDS011;6916;51.504;7.416;2023-06-10T15:27:53;8.52;;;4.38;;
13687;SDS011;6916;51.504;7.416;2023-06-10T15:37:55;8.93;;;4.57;;
13687;SDS011;6916;51.504;7.416;2023-06-10T15:47:57;4.68;;;4.18;;
13687;SDS011;6916;51.504;7.416;2023-06-10T15:58:00;4.90;;;4.10;;
13687;SDS011;6916;51.504;7.416;2023-06-10T16:08:05;4.18;;;3.53;;
13687;SDS011;6916;51.504;7.416;2023-06-10T16:18:08;5.70;;;5.20;;
13687;SDS011;6916;51.504;7.416;2023-06-10T16:28:10;6.07;;;3.90;;
13687;SDS011;6916;51.504;7.416;2023-06-10T16:38:12;8.00;;;4.03;;
13687;SDS011;6916;51.504;7.416;2023-06-10T16:48:15;5.05;;;4.15;;
13687;SDS011;6916;51.504;7.416;2023-06-10T16:58:17;5.50;;;4.47;;
13687;SDS011;6916;51.504;7.416;2023-06-10T17:08:19;6.20;;;4.82;;
13687;SDS011;6916;51.504;7.416;2023-06-10T17:18:21;5.88;;;4.60;;
13687;SDS011;6916;51.504;7.416;2023-06-10T17:28:24;4.63;;;4.20;;
13687;SDS011;6916;51.504;7.416;2023-06-10T17:38:26;8.05;;;4.82;;
13687;SDS011;6916;51.504;7.416;2023-06-10T17:48:28;17.88;;;14.82;;
13687;SDS011;6916;51.504;7.416;2023-06-10T17:58:31;6.25;;;4.63;;
13687;SDS011;6916;51.504;7.416;2023-06-10T18:08:33;10.32;;;5.88;;
13687;SDS011;6916;51.504;7.416;2023-06-10T18:18:36;6.30;;;5.75;;
13687;SDS011;6916;51.504;7.416;2023-06-10T18:28:39;8.57;;;5.60;;
13687;SDS011;6916;51.504;7.416;2023-06-10T18:38:41;5.68;;;5.13;;
13687;SDS011;6916;51.504;7.416;2023-06-10T18:48:44;6.55;;;5.07;;
13687;SDS011;6916;51.504;7.416;2023-06-10T18:58:47;25.48;;;22.88;;
13687;SDS011;6916;51.504;7.416;2023-06-10T19:08:51;7.47;;;6.57;;
13687;SDS011;6916;51.504;7.416;2023-06-10T19:18:54;9.23;;;8.35;;
13687;SDS011;6916;51.504;7.416;2023-06-10T19:28:56;8.85;;;7.28;;
13687;SDS011;6916;51.504;7.416;2023-06-10T19:38:59;9.25;;;8.07;;
13687;SDS011;6916;51.504;7.416;2023-06-10T19:49:01;6.20;;;5.22;;
13687;SDS011;6916;51.504;7.416;2023-06-10T19:59:04;6.50;;;5.45;;
13687;SDS011;6916;51.504;7.416;2023-06-10T20:09:07;8.45;;;5.10;;
13687;SDS011;6916;51.504;7.416;2023-06-10T20:19:10;5.47;;;4.90;;
13687;SDS011;6916;51.504;7.416;2023-06-10T20:29:12;6.38;;;5.07;;
13687;SDS011;6916;51.504;7.416;2023-06-10T20:39:14;4.78;;;4.35;;
13687;SDS011;6916;51.504;7.416;2023-06-10T20:49:18;6.03;;;5.10;;
13687;SDS011;6916;51.504;7.416;2023-06-10T20:59:20;5.72;;;4.97;;
13687;SDS011;6916;51.504;7.416;2023-06-10T21:09:23;7.13;;;4.63;;
13687;SDS011;6916;51.504;7.416;2023-06-10T21:19:26;6.18;;;5.13;;
13687;SDS011;6916;51.504;7.416;2023-06-10T21:29:28;7.28;;;5.40;;
13687;SDS011;6916;51.504;7.416;2023-06-10T21:39:31;9.00;;;5.90;;
13687;SDS011;6916;51.504;7.416;2023-06-10T21:49:33;12.90;;;7.82;;
13687;SDS011;6916;51.504;7.416;2023-06-10T21:59:35;6.03;;;5.13;;
13687;SDS011;6916;51.504;7.416;2023-06-10T22:09:48;6.97;;;5.28;;
13687;SDS011;6916;51.504;7.416;2023-06-10T22:19:51;6.38;;;5.78;;
13687;SDS011;6916;51.504;7.416;2023-06-10T22:29:54;9.05;;;7.07;;
13687;SDS011;6916;51.504;7.416;2023-06-10T22:39:57;9.50;;;6.53;;
13687;SDS011;6916;51.504;7.416;2023-06-10T22:49:59;7.45;;;6.65;;
13687;SDS011;6916;51.504;7.416;2023-06-10T23:00:01;8.60;;;7.05;;
13687;SDS011;6916;51.504;7.416;2023-06-10T23:10:06;9.85;;;7.45;;
13687;SDS011;6916;51.504;7.416;2023-06-10T23:20:09;10.88;;;7.13;;
13687;SDS011;6916;51.504;7.416;2023-06-10T23:30:12;7.93;;;7.22;;
13687;SDS011;6916;51.504;7.416;2023-06-10T23:40:15;7.43;;;6.70;;
13687;SDS011;6916;51.504;7.416;2023-06-10T23:50:20;11.75;;;6.85;;
